Pays
Station

 

Conditions  météo  pour  Grimsey  -  Islande    Islande

  
8 °C
    
 
 

METAR pour Grimsey :

BIGR 091214Z 34017KT 7000 DZ BR OVC004 08/07 Q1014

 

Voici le bulletin pour Grimsey - Islande.
 
Le bulletin a été fait il y a 342 heures et 27 minutes, à 12:14 UTC .
Le vent soufflait à la vitesse de 8.7 mètres par seconde de Nord/Nord-ouest (340°).
 
La température était de 8 °C, avec un point de rosée à 7 °C.
La pression atmosphérique était de 1014 hPa.
L'humidité relative était de 93.4%.
 
Le ciel était nuageux à partir d'une hauteur de 122 mètres
 
La visibilité globale était de 7.0 kilomètres.
 
Actuellement moderé(e) bruine plus brume.

 
 
 

Pays :   A   B   C   D   E   F   G   H   I   J   K   L   M   N   O   P   Q   R   S   T   U   V   W   Y   Z

 

Partenaires :  Info Météo avec Met'info
Météo Marine avec MeteoMarine.net
Infos Site  |  Infos Légales  |  Crédits  |  Confidentialité
Contactez-nous  |  Ajouter aux favoris
© 2013-2019 METAR - Tous droits réservés